This is the latest recevied weather packets stored in our database for station/object DJ0JJ-11. If no packets are shown the sender has not sent any weather packets the latest 10 day(s).
| Time | Temp. | Humidity | Pressure | Rain* | Wind** | Luminosity | Snow |
|---|---|---|---|---|---|---|---|
| 1777852751 | 15° C | 57% | 1016.1 hPa | - | - | - | - |
| 1777851851 | 15.56° C | 57% | 1016.1 hPa | - | - | - | - |
| 1777850950 | 15.56° C | 58% | 1016 hPa | - | - | - | - |
| 1777850050 | 15.56° C | 59% | 1016.1 hPa | - | - | - | - |
| 1777849150 | 16.11° C | 60% | 1016 hPa | - | - | - | - |
| 1777848250 | 16.11° C | 62% | 1015.9 hPa | - | - | - | - |
| 1777847350 | 16.11° C | 62% | 1016 hPa | - | - | - | - |
| 1777846450 | 15.56° C | 66% | 1016 hPa | - | - | - | - |
| 1777845550 | 16.67° C | 57% | 1016.1 hPa | - | - | - | - |
| 1777844649 | 16.67° C | 59% | 1016.2 hPa | - | - | - | - |
| 1777843749 | 16.67° C | 60% | 1016.2 hPa | - | - | - | - |
| 1777842849 | 17.22° C | 57% | 1016 hPa | - | - | - | - |
| 1777841949 | 16.67° C | 59% | 1016 hPa | - | - | - | - |
| 1777841049 | 17.22° C | 54% | 1016.1 hPa | - | - | - | - |
| 1777840148 | 17.22° C | 54% | 1016 hPa | - | - | - | - |
| 1777839248 | 17.22° C | 51% | 1016.1 hPa | - | - | - | - |
| 1777838348 | 17.22° C | 47% | 1016 hPa | - | - | - | - |
| 1777837447 | 17.22° C | 48% | 1015.9 hPa | - | - | - | - |
| 1777836547 | 17.22° C | 49% | 1015.8 hPa | - | - | - | - |
| 1777835647 | 17.78° C | 44% | 1015.8 hPa | - | - | - | - |
| 1777834747 | 17.78° C | 43% | 1016 hPa | - | - | - | - |
| 1777833847 | 17.78° C | 42% | 1016.1 hPa | - | - | - | - |
| 1777832946 | 18.33° C | 40% | 1016.2 hPa | - | - | - | - |
| 1777832046 | 18.89° C | 36% | 1016.2 hPa | - | - | - | - |
| 1777831145 | 18.89° C | 35% | 1016.1 hPa | - | - | - | - |
* Rain since midnight (hover to see other rain measurements)
** Current wind speed in m/s (hover to see current wind gust speed)